createdAt,value
2016-10-26T00:00:20.448Z,0
2016-10-26T00:01:20.419Z,0
2016-10-26T00:02:20.422Z,0
2016-10-26T00:03:20.400Z,0
2016-10-26T00:04:20.388Z,0
2016-10-26T00:05:20.362Z,0
2016-10-26T00:06:20.347Z,0
2016-10-26T00:07:20.537Z,0
2016-10-26T00:08:20.340Z,0
2016-10-26T00:09:20.486Z,0
2016-10-26T00:10:20.519Z,0
2016-10-26T00:11:20.313Z,0
2016-10-26T00:12:20.283Z,0
2016-10-26T00:13:20.253Z,0
2016-10-26T00:14:20.243Z,0
2016-10-26T00:15:20.239Z,0
2016-10-26T00:16:20.230Z,0
2016-10-26T00:17:20.198Z,0
2016-10-26T00:18:20.218Z,0
2016-10-26T00:19:20.196Z,0
2016-10-26T00:20:20.152Z,0
2016-10-26T00:21:20.317Z,0
2016-10-26T00:22:20.173Z,0
2016-10-26T00:23:20.152Z,0
2016-10-26T00:24:20.097Z,0
2016-10-26T00:25:20.098Z,0
2016-10-26T00:26:20.196Z,0
2016-10-26T00:27:20.054Z,0
2016-10-26T00:28:20.037Z,0
2016-10-26T00:29:20.060Z,0
2016-10-26T00:30:20.031Z,0
2016-10-26T00:31:20.002Z,0
2016-10-26T00:32:20.002Z,0
2016-10-26T00:33:19.962Z,0
2016-10-26T00:34:19.959Z,0
2016-10-26T00:35:19.936Z,0
2016-10-26T00:36:19.952Z,0
2016-10-26T00:37:19.973Z,0
2016-10-26T00:38:19.894Z,0
2016-10-26T00:39:20.107Z,0
2016-10-26T00:40:19.890Z,0
2016-10-26T00:41:19.846Z,0
2016-10-26T00:42:20.187Z,0
2016-10-26T00:43:19.842Z,0
2016-10-26T00:44:19.821Z,0
2016-10-26T00:45:19.784Z,0
2016-10-26T00:46:19.785Z,0
2016-10-26T00:47:19.793Z,0
2016-10-26T00:48:19.771Z,0
2016-10-26T00:49:19.736Z,0
2016-10-26T00:50:19.726Z,0
2016-10-26T00:51:19.731Z,0
2016-10-26T00:52:19.702Z,0
2016-10-26T00:53:19.687Z,0
2016-10-26T00:54:19.703Z,0
2016-10-26T00:55:19.698Z,0
2016-10-26T00:56:19.626Z,0
2016-10-26T00:57:19.634Z,0
2016-10-26T00:58:19.937Z,0
2016-10-26T00:59:19.578Z,0
2016-10-26T01:00:19.617Z,0
2016-10-26T01:01:19.576Z,0
2016-10-26T01:02:19.589Z,0
2016-10-26T01:03:19.552Z,0
2016-10-26T01:04:19.556Z,0
2016-10-26T01:05:19.510Z,0
2016-10-26T01:06:19.494Z,0
2016-10-26T01:07:19.502Z,0
2016-10-26T01:08:19.517Z,0
2016-10-26T01:09:19.499Z,0
2016-10-26T01:10:19.707Z,0
2016-10-26T01:11:33.966Z,0
2016-10-26T01:12:19.422Z,0
2016-10-26T01:13:19.784Z,0
2016-10-26T01:14:19.394Z,0
2016-10-26T01:15:19.407Z,0
2016-10-26T01:16:19.392Z,0
2016-10-26T01:17:19.362Z,0
2016-10-26T01:18:19.486Z,0
2016-10-26T01:19:19.359Z,0
2016-10-26T01:20:19.322Z,0
2016-10-26T01:21:19.276Z,0
2016-10-26T01:22:19.320Z,0
2016-10-26T01:23:19.243Z,0
2016-10-26T01:24:19.232Z,0
2016-10-26T01:25:19.238Z,0
2016-10-26T01:26:19.212Z,0
2016-10-26T01:27:19.216Z,0
2016-10-26T01:28:19.188Z,0
2016-10-26T01:29:19.214Z,0
2016-10-26T01:30:19.177Z,0
2016-10-26T01:31:19.167Z,0
2016-10-26T01:32:19.150Z,0
2016-10-26T01:33:19.126Z,0
2016-10-26T01:34:19.118Z,0
2016-10-26T01:35:19.107Z,0
2016-10-26T01:36:19.080Z,0
2016-10-26T01:37:19.079Z,0
2016-10-26T01:38:19.204Z,0
2016-10-26T01:39:19.034Z,0
2016-10-26T01:40:19.044Z,0
2016-10-26T01:41:19.210Z,0
2016-10-26T01:42:19.051Z,0
2016-10-26T01:43:19.012Z,0
2016-10-26T01:44:19.004Z,0
2016-10-26T01:45:18.988Z,0
2016-10-26T01:46:18.973Z,0
2016-10-26T01:47:18.946Z,0
2016-10-26T01:48:18.907Z,0
2016-10-26T01:49:19.053Z,0
2016-10-26T01:50:18.868Z,0
2016-10-26T01:51:18.862Z,0
2016-10-26T01:52:18.856Z,0
2016-10-26T01:53:18.872Z,0
2016-10-26T01:54:18.883Z,0
2016-10-26T01:55:18.829Z,0
2016-10-26T01:56:18.788Z,0
2016-10-26T01:57:18.757Z,0
2016-10-26T01:58:18.798Z,0
2016-10-26T01:59:18.924Z,0
2016-10-26T02:00:18.752Z,0
2016-10-26T02:01:18.761Z,0
2016-10-26T02:02:18.711Z,0
2016-10-26T02:03:18.687Z,0
2016-10-26T02:04:18.708Z,0
2016-10-26T02:05:18.688Z,0
2016-10-26T02:06:18.663Z,0
2016-10-26T02:07:18.669Z,0
2016-10-26T02:08:18.619Z,0
2016-10-26T02:09:18.617Z,0
2016-10-26T02:10:18.613Z,0
2016-10-26T02:11:18.761Z,0
2016-10-26T02:12:18.573Z,0
2016-10-26T02:13:18.550Z,0
2016-10-26T02:14:18.539Z,0
2016-10-26T02:15:18.550Z,0
2016-10-26T02:16:18.513Z,0
2016-10-26T02:17:18.497Z,0
2016-10-26T02:18:18.503Z,0
2016-10-26T02:19:18.471Z,0
2016-10-26T02:20:18.477Z,0
2016-10-26T02:21:18.422Z,0
2016-10-26T02:22:18.436Z,0
2016-10-26T02:23:18.428Z,0
2016-10-26T02:24:18.388Z,0
2016-10-26T02:25:18.415Z,0
2016-10-26T02:26:18.357Z,0
2016-10-26T02:27:18.393Z,0
2016-10-26T02:28:18.341Z,0
2016-10-26T02:29:18.333Z,0
2016-10-26T02:30:18.467Z,0
2016-10-26T02:31:18.278Z,0
2016-10-26T02:32:18.286Z,0
2016-10-26T02:33:18.274Z,0
2016-10-26T02:34:18.277Z,0
2016-10-26T02:35:18.402Z,0
2016-10-26T02:36:18.235Z,0
2016-10-26T02:37:18.239Z,0
2016-10-26T02:38:18.230Z,0
2016-10-26T02:39:18.205Z,0
2016-10-26T02:40:18.170Z,0
2016-10-26T02:41:18.150Z,0
2016-10-26T02:42:18.471Z,0
2016-10-26T02:43:18.126Z,0
2016-10-26T02:44:18.128Z,0
2016-10-26T02:45:18.268Z,0
2016-10-26T02:46:18.083Z,0
2016-10-26T02:47:18.103Z,0
2016-10-26T02:48:18.078Z,0
2016-10-26T02:49:18.069Z,0
2016-10-26T02:50:18.191Z,0
2016-10-26T02:51:18.049Z,0
2016-10-26T02:52:18.010Z,0
2016-10-26T02:53:18.006Z,0
2016-10-26T02:54:17.983Z,0
2016-10-26T02:55:17.995Z,0
2016-10-26T02:56:17.984Z,0
2016-10-26T02:57:17.973Z,0
2016-10-26T02:58:17.930Z,0
2016-10-26T02:59:17.925Z,0
2016-10-26T03:00:17.938Z,0
2016-10-26T03:01:17.889Z,0
2016-10-26T03:02:17.896Z,0
2016-10-26T03:03:17.881Z,0
2016-10-26T03:04:17.879Z,0
2016-10-26T03:05:17.848Z,0
2016-10-26T03:06:17.853Z,0
2016-10-26T03:07:17.822Z,0
2016-10-26T03:08:17.800Z,0
2016-10-26T03:09:17.783Z,0
2016-10-26T03:10:17.760Z,0
2016-10-26T03:11:17.790Z,0
2016-10-26T03:12:17.750Z,0
2016-10-26T03:13:17.721Z,0
2016-10-26T03:14:17.721Z,0
2016-10-26T03:15:17.712Z,0
2016-10-26T03:16:17.707Z,0
2016-10-26T03:17:17.704Z,0
2016-10-26T03:18:17.647Z,0
2016-10-26T03:19:17.666Z,0
2016-10-26T03:20:17.644Z,0
2016-10-26T03:21:17.622Z,0
2016-10-26T03:22:17.607Z,0
2016-10-26T03:23:17.596Z,0
2016-10-26T03:24:17.619Z,0
2016-10-26T03:25:17.585Z,0
2016-10-26T03:26:17.717Z,0
2016-10-26T03:27:17.571Z,0
2016-10-26T03:28:17.538Z,0
2016-10-26T03:29:17.556Z,0
2016-10-26T03:30:17.552Z,0
2016-10-26T03:31:17.629Z,0
2016-10-26T03:32:17.482Z,0
2016-10-26T03:33:17.487Z,0
2016-10-26T03:34:17.471Z,0
2016-10-26T03:35:17.439Z,0
2016-10-26T03:36:17.447Z,0
2016-10-26T03:37:17.441Z,0
2016-10-26T03:38:17.455Z,0
2016-10-26T03:39:17.469Z,0
2016-10-26T03:40:17.452Z,0
2016-10-26T03:41:18.914Z,0
2016-10-26T03:42:17.353Z,0
2016-10-26T03:43:17.426Z,0
2016-10-26T03:44:17.385Z,0
2016-10-26T03:45:17.336Z,0
2016-10-26T03:46:17.479Z,0
2016-10-26T03:47:17.301Z,0
2016-10-26T03:48:17.290Z,0
2016-10-26T03:49:17.280Z,0
2016-10-26T03:50:17.268Z,0
2016-10-26T03:51:17.255Z,0
2016-10-26T03:52:17.562Z,0
2016-10-26T03:53:17.215Z,0
2016-10-26T03:54:17.224Z,0
2016-10-26T03:55:17.206Z,0
2016-10-26T03:56:17.177Z,0
2016-10-26T03:57:17.222Z,0
2016-10-26T03:58:17.156Z,0
2016-10-26T03:59:17.140Z,0
2016-10-26T04:00:17.161Z,0
2016-10-26T04:01:17.157Z,0
2016-10-26T04:02:17.139Z,0
2016-10-26T04:03:17.133Z,0
2016-10-26T04:04:17.116Z,0
2016-10-26T04:05:17.104Z,0
2016-10-26T04:06:17.061Z,0
2016-10-26T04:07:17.060Z,0
2016-10-26T04:08:17.044Z,0
2016-10-26T04:09:17.011Z,0
2016-10-26T04:10:17.000Z,0
2016-10-26T04:11:16.984Z,0
2016-10-26T04:12:16.963Z,0
2016-10-26T04:13:16.985Z,0
2016-10-26T04:14:17.266Z,0
2016-10-26T04:15:16.956Z,0
2016-10-26T04:16:16.948Z,0
2016-10-26T04:17:16.936Z,0
2016-10-26T04:18:16.895Z,0
2016-10-26T04:19:16.889Z,0
2016-10-26T04:20:16.880Z,0
2016-10-26T04:21:16.866Z,0
2016-10-26T04:22:16.859Z,0
2016-10-26T04:23:16.836Z,0
2016-10-26T04:24:16.852Z,0
2016-10-26T04:25:16.838Z,0
2016-10-26T04:26:16.812Z,0
2016-10-26T04:27:16.803Z,0
2016-10-26T04:28:16.795Z,0
2016-10-26T04:29:16.770Z,0
2016-10-26T04:30:16.752Z,0
2016-10-26T04:31:16.729Z,0
2016-10-26T04:32:16.857Z,0
2016-10-26T04:33:16.721Z,0
2016-10-26T04:34:16.670Z,0
2016-10-26T04:35:16.683Z,0
2016-10-26T04:36:16.671Z,0
2016-10-26T04:37:16.660Z,0
2016-10-26T04:38:16.655Z,0
2016-10-26T04:39:16.635Z,0
2016-10-26T04:40:16.580Z,0
2016-10-26T04:41:16.602Z,0
2016-10-26T04:42:17.035Z,0
2016-10-26T04:43:16.561Z,0
2016-10-26T04:44:16.561Z,0
2016-10-26T04:45:16.528Z,0
2016-10-26T04:46:16.532Z,0
2016-10-26T04:47:16.519Z,0
2016-10-26T04:48:16.509Z,0
2016-10-26T04:49:16.476Z,0
2016-10-26T04:50:16.490Z,0
2016-10-26T04:51:16.773Z,0
2016-10-26T04:52:16.466Z,0
2016-10-26T04:53:16.471Z,0
2016-10-26T04:54:16.408Z,0
2016-10-26T04:55:16.384Z,0
2016-10-26T04:56:16.397Z,0
2016-10-26T04:57:16.402Z,0
2016-10-26T04:58:16.373Z,0
2016-10-26T04:59:16.338Z,0
2016-10-26T05:00:16.347Z,0
2016-10-26T05:01:16.349Z,0
2016-10-26T05:02:16.338Z,0
2016-10-26T05:03:16.268Z,0
2016-10-26T05:04:16.291Z,0
2016-10-26T05:05:16.294Z,0
2016-10-26T05:06:16.274Z,0
2016-10-26T05:07:16.249Z,0
2016-10-26T05:08:16.219Z,0
2016-10-26T05:09:16.226Z,0
2016-10-26T05:10:16.209Z,0
2016-10-26T05:11:16.203Z,0
2016-10-26T05:12:16.168Z,0
2016-10-26T05:13:16.166Z,0
2016-10-26T05:14:16.148Z,0
2016-10-26T05:15:16.145Z,0
2016-10-26T05:16:16.126Z,0
2016-10-26T05:17:16.157Z,0
2016-10-26T05:18:16.074Z,0
2016-10-26T05:19:16.105Z,0
2016-10-26T05:20:16.076Z,0
2016-10-26T05:21:16.060Z,0
2016-10-26T05:22:16.083Z,0
2016-10-26T05:23:16.041Z,0
2016-10-26T05:24:16.020Z,0
2016-10-26T05:25:16.000Z,0
2016-10-26T05:26:15.999Z,0
2016-10-26T05:27:15.970Z,0
2016-10-26T05:28:15.949Z,0
2016-10-26T05:29:15.963Z,0
2016-10-26T05:30:16.264Z,0
2016-10-26T05:31:16.239Z,0
2016-10-26T05:32:15.927Z,0
2016-10-26T05:33:15.939Z,0
2016-10-26T05:34:15.891Z,0
2016-10-26T05:35:15.881Z,0
2016-10-26T05:36:15.865Z,0
2016-10-26T05:37:15.864Z,0
2016-10-26T05:38:15.846Z,0
2016-10-26T05:39:15.827Z,0
2016-10-26T05:40:15.812Z,0
2016-10-26T05:41:15.784Z,0
2016-10-26T05:42:15.767Z,0
2016-10-26T05:43:15.744Z,0
2016-10-26T05:44:15.765Z,0
2016-10-26T05:45:15.751Z,0
2016-10-26T05:46:15.727Z,0
2016-10-26T05:47:15.741Z,5
2016-10-26T05:48:15.685Z,5
2016-10-26T05:49:15.703Z,5
2016-10-26T05:50:15.732Z,5
2016-10-26T05:51:15.660Z,5
2016-10-26T05:52:15.958Z,5
2016-10-26T05:53:15.642Z,5
2016-10-26T05:54:15.924Z,10
2016-10-26T05:55:15.630Z,10
2016-10-26T05:56:15.604Z,10
2016-10-26T05:57:15.596Z,10
2016-10-26T05:58:15.584Z,10
2016-10-26T05:59:15.588Z,15
2016-10-26T06:00:15.576Z,15
2016-10-26T06:01:15.548Z,15
2016-10-26T06:02:16.178Z,20
2016-10-26T06:03:15.507Z,20
2016-10-26T06:04:16.007Z,20
2016-10-26T06:05:15.510Z,25
2016-10-26T06:06:15.473Z,25
2016-10-26T06:07:15.448Z,25
2016-10-26T06:08:15.437Z,30
2016-10-26T06:09:15.439Z,30
2016-10-26T06:10:15.440Z,30
2016-10-26T06:11:15.387Z,35
2016-10-26T06:12:15.391Z,35
2016-10-26T06:13:15.390Z,40
2016-10-26T06:14:15.387Z,40
2016-10-26T06:15:15.395Z,45
2016-10-26T06:16:15.352Z,55
2016-10-26T06:17:15.358Z,60
2016-10-26T06:18:15.320Z,65
2016-10-26T06:19:15.338Z,70
2016-10-26T06:20:15.297Z,75
2016-10-26T06:21:15.339Z,80
2016-10-26T06:22:15.250Z,90
2016-10-26T06:23:15.236Z,95
2016-10-26T06:24:15.232Z,100
2016-10-26T06:25:15.244Z,105
2016-10-26T06:26:15.215Z,95
2016-10-26T06:27:15.218Z,90
2016-10-26T06:28:15.202Z,90
2016-10-26T06:29:15.242Z,90
2016-10-26T06:30:15.178Z,95
2016-10-26T06:31:15.186Z,100
2016-10-26T06:32:15.105Z,105
2016-10-26T06:33:15.133Z,105
2016-10-26T06:34:15.105Z,105
2016-10-26T06:35:15.123Z,105
2016-10-26T06:36:15.092Z,110
2016-10-26T06:37:15.103Z,125
2016-10-26T06:38:15.093Z,140
2016-10-26T06:39:15.027Z,135
2016-10-26T06:40:15.004Z,140
2016-10-26T06:41:15.029Z,150
2016-10-26T06:42:14.991Z,165
2016-10-26T06:43:14.980Z,170
2016-10-26T06:44:15.021Z,175
2016-10-26T06:45:14.985Z,175
2016-10-26T06:46:14.984Z,180
2016-10-26T06:47:14.952Z,185
2016-10-26T06:48:14.951Z,195
2016-10-26T06:49:14.907Z,205
2016-10-26T06:50:14.914Z,225
2016-10-26T06:51:14.877Z,230
2016-10-26T06:52:14.893Z,225
2016-10-26T06:53:14.858Z,220
2016-10-26T06:54:14.844Z,225
2016-10-26T06:55:14.837Z,220
2016-10-26T06:56:14.824Z,235
2016-10-26T06:57:14.810Z,230
2016-10-26T06:58:14.804Z,225
2016-10-26T06:59:14.778Z,215
2016-10-26T07:00:14.905Z,210
2016-10-26T07:01:14.775Z,210
2016-10-26T07:02:14.763Z,195
2016-10-26T07:03:14.739Z,195
2016-10-26T07:04:14.702Z,205
2016-10-26T07:05:14.820Z,225
2016-10-26T07:06:14.694Z,255
2016-10-26T07:07:14.712Z,295
2016-10-26T07:08:14.664Z,360
2016-10-26T07:09:14.656Z,370
2016-10-26T07:10:14.708Z,370
2016-10-26T07:11:14.623Z,375
2016-10-26T07:12:14.646Z,405
2016-10-26T07:13:14.624Z,445
2016-10-26T07:14:14.905Z,475
2016-10-26T07:15:14.609Z,495
2016-10-26T07:16:14.557Z,490
2016-10-26T07:17:14.599Z,465
2016-10-26T07:18:14.541Z,445
2016-10-26T07:19:14.542Z,425
2016-10-26T07:20:14.696Z,415
2016-10-26T07:21:14.537Z,415
2016-10-26T07:22:14.502Z,420
2016-10-26T07:23:14.514Z,420
2016-10-26T07:24:14.468Z,400
2016-10-26T07:25:14.487Z,385
2016-10-26T07:26:14.477Z,400
2016-10-26T07:27:14.456Z,415
2016-10-26T07:28:14.457Z,430
2016-10-26T07:29:14.417Z,435
2016-10-26T07:30:14.382Z,425
2016-10-26T07:31:14.393Z,410
2016-10-26T07:32:14.418Z,390
2016-10-26T07:33:14.371Z,375
2016-10-26T07:34:14.656Z,375
2016-10-26T07:35:14.359Z,385
2016-10-26T07:36:14.362Z,380
2016-10-26T07:37:14.384Z,365
2016-10-26T07:38:14.303Z,355
2016-10-26T07:39:14.328Z,345
2016-10-26T07:40:14.297Z,325
2016-10-26T07:41:14.301Z,310
2016-10-26T07:42:14.283Z,300
2016-10-26T07:43:14.262Z,300
2016-10-26T07:44:14.273Z,295
2016-10-26T07:45:14.225Z,285
2016-10-26T07:46:14.208Z,275
2016-10-26T07:47:14.209Z,275
2016-10-26T07:48:14.191Z,280
2016-10-26T07:49:14.199Z,295
2016-10-26T07:50:14.209Z,295
2016-10-26T07:51:14.317Z,300
2016-10-26T07:52:14.157Z,300
2016-10-26T07:53:14.135Z,295
2016-10-26T07:54:14.127Z,300
2016-10-26T07:55:14.115Z,305
2016-10-26T07:56:14.150Z,315
2016-10-26T07:57:14.106Z,315
2016-10-26T07:58:14.089Z,320
2016-10-26T07:59:14.075Z,330
2016-10-26T08:00:14.054Z,345
2016-10-26T08:01:14.055Z,355
2016-10-26T08:02:14.017Z,370
2016-10-26T08:03:13.996Z,380
2016-10-26T08:04:14.005Z,385
2016-10-26T08:05:13.956Z,380
2016-10-26T08:06:13.958Z,370
2016-10-26T08:07:13.966Z,390
2016-10-26T08:08:13.940Z,435
2016-10-26T08:09:13.907Z,455
2016-10-26T08:10:13.949Z,450
2016-10-26T08:11:13.901Z,445
2016-10-26T08:12:13.893Z,450
2016-10-26T08:13:13.889Z,460
2016-10-26T08:14:13.878Z,465
2016-10-26T08:15:13.929Z,465
2016-10-26T08:16:13.847Z,450
2016-10-26T08:17:13.846Z,435
2016-10-26T08:18:13.838Z,430
2016-10-26T08:19:13.824Z,420
2016-10-26T08:20:13.771Z,410
2016-10-26T08:21:13.801Z,410
2016-10-26T08:22:13.796Z,405
2016-10-26T08:23:13.741Z,410
2016-10-26T08:24:13.770Z,425
2016-10-26T08:25:13.758Z,435
2016-10-26T08:26:13.716Z,445
2016-10-26T08:27:13.752Z,465
2016-10-26T08:28:13.688Z,485
2016-10-26T08:29:13.667Z,480
2016-10-26T08:30:13.649Z,485
2016-10-26T08:31:13.661Z,490
2016-10-26T08:32:13.639Z,495
2016-10-26T08:33:13.653Z,495
2016-10-26T08:34:13.617Z,495
2016-10-26T08:35:13.628Z,505
2016-10-26T08:36:13.604Z,510
2016-10-26T08:37:13.605Z,520
2016-10-26T08:38:13.566Z,525
2016-10-26T08:39:13.589Z,520
2016-10-26T08:40:13.614Z,505
2016-10-26T08:41:13.520Z,520
2016-10-26T08:42:13.539Z,520
2016-10-26T08:43:13.511Z,520
2016-10-26T08:44:13.514Z,505
2016-10-26T08:45:13.507Z,475
2016-10-26T08:46:13.467Z,440
2016-10-26T08:47:13.482Z,420
2016-10-26T08:48:13.466Z,395
2016-10-26T08:49:13.450Z,375
2016-10-26T08:50:13.429Z,375
2016-10-26T08:51:13.392Z,370
2016-10-26T08:52:13.615Z,365
2016-10-26T08:53:13.383Z,365
2016-10-26T08:54:13.400Z,370
2016-10-26T08:55:13.367Z,385
2016-10-26T08:56:13.328Z,405
2016-10-26T08:57:13.331Z,425
2016-10-26T08:58:13.338Z,450
2016-10-26T08:59:13.292Z,460
2016-10-26T09:00:13.274Z,475
2016-10-26T09:01:13.284Z,490
2016-10-26T09:02:13.271Z,495
2016-10-26T09:03:13.262Z,495
2016-10-26T09:04:13.259Z,495
2016-10-26T09:05:13.268Z,490
2016-10-26T09:06:13.245Z,485
2016-10-26T09:07:13.203Z,480
2016-10-26T09:08:13.181Z,475
2016-10-26T09:09:13.189Z,475
2016-10-26T09:10:13.452Z,475
2016-10-26T09:11:13.147Z,490
2016-10-26T09:12:13.119Z,510
2016-10-26T09:13:13.112Z,535
2016-10-26T09:14:13.096Z,560
2016-10-26T09:15:13.122Z,580
2016-10-26T09:16:13.100Z,600
2016-10-26T09:17:13.080Z,615
2016-10-26T09:18:13.680Z,625
2016-10-26T09:19:13.031Z,625
2016-10-26T09:20:13.012Z,630
2016-10-26T09:21:13.031Z,625
2016-10-26T09:22:12.984Z,620
2016-10-26T09:23:13.004Z,600
2016-10-26T09:24:12.954Z,585
2016-10-26T09:25:12.961Z,560
2016-10-26T09:26:13.271Z,530
2016-10-26T09:27:12.930Z,505
2016-10-26T09:28:12.935Z,480
2016-10-26T09:29:12.948Z,465
2016-10-26T09:30:12.919Z,450
2016-10-26T09:31:12.919Z,440
2016-10-26T09:32:12.871Z,425
2016-10-26T09:33:12.860Z,415
2016-10-26T09:34:12.835Z,405
2016-10-26T09:35:12.811Z,395
2016-10-26T09:36:12.842Z,385
2016-10-26T09:37:12.824Z,380
2016-10-26T09:38:12.818Z,375
2016-10-26T09:39:12.786Z,375
2016-10-26T09:40:12.788Z,370
2016-10-26T09:41:12.742Z,365
2016-10-26T09:42:12.766Z,365
2016-10-26T09:43:12.758Z,365
2016-10-26T09:44:12.702Z,365
2016-10-26T09:45:12.749Z,365
2016-10-26T09:46:12.706Z,370
2016-10-26T09:47:12.710Z,380
2016-10-26T09:48:12.660Z,385
2016-10-26T09:49:12.666Z,390
2016-10-26T09:50:12.669Z,390
2016-10-26T09:51:12.688Z,400
2016-10-26T09:52:12.633Z,395
2016-10-26T09:53:12.611Z,395
2016-10-26T09:54:12.614Z,395
2016-10-26T09:55:12.604Z,390
2016-10-26T09:56:12.598Z,380
2016-10-26T09:57:12.571Z,370
2016-10-26T09:58:12.712Z,360
2016-10-26T09:59:12.555Z,345
2016-10-26T10:00:12.565Z,335
2016-10-26T10:01:12.555Z,320
2016-10-26T10:02:12.528Z,305
2016-10-26T10:03:12.474Z,295
2016-10-26T10:04:12.490Z,285
2016-10-26T10:05:12.491Z,275
2016-10-26T10:06:13.089Z,270
2016-10-26T10:07:12.473Z,265
2016-10-26T10:08:12.443Z,265
2016-10-26T10:09:12.448Z,260
2016-10-26T10:10:12.427Z,260
2016-10-26T10:11:12.395Z,260
2016-10-26T10:12:12.709Z,260
2016-10-26T10:13:12.373Z,260
2016-10-26T10:14:12.369Z,265
2016-10-26T10:15:12.377Z,270
2016-10-26T10:16:12.359Z,280
2016-10-26T10:17:12.340Z,285
2016-10-26T10:18:12.317Z,295
2016-10-26T10:19:12.328Z,305
2016-10-26T10:20:12.299Z,320
2016-10-26T10:21:12.314Z,335
2016-10-26T10:22:12.288Z,350
2016-10-26T10:23:12.244Z,360
2016-10-26T10:24:12.266Z,370
2016-10-26T10:25:12.225Z,380
2016-10-26T10:26:12.224Z,385
2016-10-26T10:27:12.219Z,390
2016-10-26T10:28:12.201Z,395
2016-10-26T10:29:12.200Z,400
2016-10-26T10:30:12.221Z,400
2016-10-26T10:31:12.170Z,405
2016-10-26T10:32:12.159Z,410
2016-10-26T10:33:12.158Z,415
2016-10-26T10:34:12.122Z,420
2016-10-26T10:35:12.118Z,425
2016-10-26T10:36:12.115Z,425
2016-10-26T10:37:12.101Z,430
2016-10-26T10:38:12.094Z,435
2016-10-26T10:39:12.072Z,435
2016-10-26T10:40:12.065Z,435
2016-10-26T10:41:12.072Z,430
2016-10-26T10:42:12.032Z,430
2016-10-26T10:43:12.016Z,425
2016-10-26T10:44:12.192Z,425
2016-10-26T10:45:12.035Z,420
2016-10-26T10:46:12.002Z,410
2016-10-26T10:47:11.966Z,405
2016-10-26T10:48:11.985Z,400
2016-10-26T10:49:12.129Z,390
2016-10-26T10:50:11.975Z,385
2016-10-26T10:51:11.973Z,375
2016-10-26T10:52:11.940Z,365
2016-10-26T10:53:11.901Z,365
2016-10-26T10:54:12.055Z,360
2016-10-26T10:55:11.862Z,360
2016-10-26T10:56:11.885Z,360
2016-10-26T10:57:11.907Z,355
2016-10-26T10:58:11.891Z,350
2016-10-26T10:59:11.829Z,350
2016-10-26T11:00:11.851Z,350
2016-10-26T11:01:11.808Z,350
2016-10-26T11:02:11.827Z,350
2016-10-26T11:03:11.799Z,360
2016-10-26T11:04:11.780Z,370
2016-10-26T11:05:11.788Z,380
2016-10-26T11:06:11.747Z,390
2016-10-26T11:07:11.764Z,395
2016-10-26T11:08:11.755Z,405
2016-10-26T11:09:11.711Z,415
2016-10-26T11:10:11.740Z,430
2016-10-26T11:11:11.698Z,450
2016-10-26T11:12:11.721Z,470
2016-10-26T11:13:11.657Z,490
2016-10-26T11:14:11.672Z,515
2016-10-26T11:15:11.681Z,540
2016-10-26T11:16:11.672Z,565
2016-10-26T11:17:11.670Z,585
2016-10-26T11:18:11.615Z,600
2016-10-26T11:19:11.649Z,600
2016-10-26T11:20:11.604Z,600
2016-10-26T11:21:11.589Z,590
2016-10-26T11:22:11.575Z,580
2016-10-26T11:23:11.607Z,565
2016-10-26T11:24:11.552Z,550
2016-10-26T11:25:11.572Z,545
2016-10-26T11:26:11.556Z,540
2016-10-26T11:27:11.528Z,535
2016-10-26T11:28:11.508Z,535
2016-10-26T11:29:11.512Z,530
2016-10-26T11:30:11.655Z,525
2016-10-26T11:31:11.474Z,515
2016-10-26T11:32:11.479Z,510
2016-10-26T11:33:11.457Z,510
2016-10-26T11:34:11.465Z,515
2016-10-26T11:35:11.548Z,525
2016-10-26T11:36:11.435Z,530
2016-10-26T11:37:11.416Z,535
2016-10-26T11:38:11.439Z,550
2016-10-26T11:39:11.399Z,565
2016-10-26T11:40:11.421Z,570
2016-10-26T11:41:11.380Z,600
2016-10-26T11:42:11.414Z,615
2016-10-26T11:43:11.369Z,655
2016-10-26T11:44:11.351Z,710
2016-10-26T11:45:11.332Z,770
2016-10-26T11:46:11.353Z,780
2016-10-26T11:47:11.353Z,755
2016-10-26T11:48:11.289Z,775
2016-10-26T11:49:11.333Z,785
2016-10-26T11:50:11.290Z,770
2016-10-26T11:51:11.262Z,820
2016-10-26T11:52:11.320Z,945
2016-10-26T11:53:11.252Z,1000
2016-10-26T11:54:11.255Z,1035
2016-10-26T11:55:11.251Z,1065
2016-10-26T11:56:11.219Z,1030
2016-10-26T11:57:11.191Z,915
2016-10-26T11:58:11.202Z,860
2016-10-26T11:59:11.181Z,825
2016-10-26T12:00:11.185Z,830
2016-10-26T12:01:11.176Z,820
2016-10-26T12:02:11.160Z,760
2016-10-26T12:03:11.115Z,775
2016-10-26T12:04:11.422Z,805
2016-10-26T12:05:11.179Z,770
2016-10-26T12:06:11.117Z,815
2016-10-26T12:07:11.101Z,925
2016-10-26T12:08:11.108Z,1175
2016-10-26T12:09:11.072Z,1450
2016-10-26T12:10:11.060Z,1235
2016-10-26T12:11:11.042Z,1115
2016-10-26T12:12:11.020Z,1535
2016-10-26T12:13:11.060Z,1445
2016-10-26T12:14:11.001Z,1455
2016-10-26T12:15:11.024Z,1680
2016-10-26T12:16:10.997Z,1335
2016-10-26T12:17:11.026Z,1480
2016-10-26T12:18:11.002Z,1255
2016-10-26T12:19:10.981Z,1270
2016-10-26T12:20:10.965Z,1520
2016-10-26T12:21:10.937Z,1565
2016-10-26T12:22:10.929Z,1620
2016-10-26T12:23:10.898Z,1320
2016-10-26T12:24:10.891Z,1195
2016-10-26T12:25:10.927Z,1105
2016-10-26T12:26:10.875Z,1125
2016-10-26T12:27:10.909Z,1185
2016-10-26T12:28:10.882Z,1285
2016-10-26T12:29:10.844Z,1765
2016-10-26T12:30:10.845Z,2075
2016-10-26T12:31:10.797Z,1425
2016-10-26T12:32:10.844Z,1290
2016-10-26T12:33:10.776Z,1240
2016-10-26T12:34:10.787Z,1235
2016-10-26T12:35:10.776Z,1140
2016-10-26T12:36:10.763Z,1225
2016-10-26T12:37:10.721Z,1060
2016-10-26T12:38:10.736Z,1045
2016-10-26T12:39:10.728Z,1235
2016-10-26T12:40:10.746Z,1820
2016-10-26T12:41:10.735Z,1935
2016-10-26T12:42:10.784Z,2170
2016-10-26T12:43:10.708Z,1320
2016-10-26T12:44:10.710Z,2475
2016-10-26T12:45:10.692Z,2415
2016-10-26T12:46:10.804Z,2530
2016-10-26T12:47:10.653Z,1540
2016-10-26T12:48:10.626Z,1225
2016-10-26T12:49:10.688Z,990
2016-10-26T12:50:10.630Z,775
2016-10-26T12:51:10.609Z,1275
2016-10-26T12:52:10.587Z,1430
2016-10-26T12:53:10.592Z,1255
2016-10-26T12:54:10.574Z,1160
2016-10-26T12:55:10.551Z,1280
2016-10-26T12:56:10.863Z,1405
2016-10-26T12:57:10.566Z,1335
2016-10-26T12:58:10.554Z,1175
2016-10-26T12:59:10.552Z,1055
2016-10-26T13:00:10.539Z,1090
2016-10-26T13:01:10.524Z,1115
2016-10-26T13:02:10.498Z,1020
2016-10-26T13:03:10.806Z,895
2016-10-26T13:04:10.479Z,805
2016-10-26T13:05:10.475Z,690
2016-10-26T13:06:10.484Z,610
2016-10-26T13:07:10.443Z,575
2016-10-26T13:08:10.423Z,575
2016-10-26T13:09:10.444Z,575
2016-10-26T13:10:10.411Z,565
2016-10-26T13:11:10.425Z,565
2016-10-26T13:12:10.417Z,560
2016-10-26T13:13:10.779Z,540
2016-10-26T13:14:10.368Z,500
2016-10-26T13:15:10.373Z,470
2016-10-26T13:16:10.386Z,460
2016-10-26T13:17:10.347Z,445
2016-10-26T13:18:10.338Z,435
2016-10-26T13:19:10.338Z,425
2016-10-26T13:20:10.313Z,430
2016-10-26T13:21:10.288Z,440
2016-10-26T13:22:10.298Z,455
2016-10-26T13:23:10.308Z,460
2016-10-26T13:24:10.305Z,495
2016-10-26T13:25:10.305Z,590
2016-10-26T13:26:10.265Z,645
2016-10-26T13:27:10.465Z,665
2016-10-26T13:28:10.254Z,670
2016-10-26T13:29:10.240Z,645
2016-10-26T13:30:10.215Z,635
2016-10-26T13:31:10.200Z,670
2016-10-26T13:32:10.207Z,715
2016-10-26T13:33:10.168Z,755
2016-10-26T13:34:10.167Z,785
2016-10-26T13:35:10.174Z,825
2016-10-26T13:36:10.138Z,820
2016-10-26T13:37:10.163Z,780
2016-10-26T13:38:10.109Z,760
2016-10-26T13:39:10.112Z,730
2016-10-26T13:40:10.092Z,725
2016-10-26T13:41:10.077Z,705
2016-10-26T13:42:10.063Z,710
2016-10-26T13:43:10.394Z,720
2016-10-26T13:44:10.031Z,730
2016-10-26T13:45:10.049Z,735
2016-10-26T13:46:10.020Z,740
2016-10-26T13:47:10.000Z,710
2016-10-26T13:48:10.027Z,670
2016-10-26T13:49:10.007Z,620
2016-10-26T13:50:10.016Z,595
2016-10-26T13:51:09.974Z,565
2016-10-26T13:52:09.991Z,555
2016-10-26T13:53:09.936Z,555
2016-10-26T13:54:09.947Z,550
2016-10-26T13:55:09.944Z,555
2016-10-26T13:56:09.913Z,580
2016-10-26T13:57:09.901Z,605
2016-10-26T13:58:09.898Z,645
2016-10-26T13:59:09.878Z,660
2016-10-26T14:00:09.862Z,660
2016-10-26T14:01:09.854Z,655
2016-10-26T14:02:09.857Z,655
2016-10-26T14:03:09.865Z,640
2016-10-26T14:04:09.841Z,610
2016-10-26T14:05:09.840Z,585
2016-10-26T14:06:09.816Z,570
2016-10-26T14:07:09.770Z,560
2016-10-26T14:08:09.753Z,565
2016-10-26T14:09:09.756Z,590